sensor_id;sensor_type;location;lat;lon;timestamp;temperature;humidity
32446;DHT22;18899;50.748;7.102;2022-07-01T00:01:43;15.40;99.90
32446;DHT22;18899;50.748;7.102;2022-07-01T00:04:10;15.30;99.90
32446;DHT22;18899;50.748;7.102;2022-07-01T00:06:36;15.20;99.90
32446;DHT22;18899;50.748;7.102;2022-07-01T00:09:02;15.30;99.90
32446;DHT22;18899;50.748;7.102;2022-07-01T00:11:32;15.20;99.90
32446;DHT22;18899;50.748;7.102;2022-07-01T00:13:57;15.40;99.90
32446;DHT22;18899;50.748;7.102;2022-07-01T00:16:23;15.30;99.90
32446;DHT22;18899;50.748;7.102;2022-07-01T00:18:49;15.30;99.90
32446;DHT22;18899;50.748;7.102;2022-07-01T00:21:14;15.20;99.90
32446;DHT22;18899;50.748;7.102;2022-07-01T00:23:41;15.10;99.90
32446;DHT22;18899;50.748;7.102;2022-07-01T00:26:06;15.10;99.90
32446;DHT22;18899;50.748;7.102;2022-07-01T00:28:32;15.10;99.90
32446;DHT22;18899;50.748;7.102;2022-07-01T00:30:57;15.10;99.90
32446;DHT22;18899;50.748;7.102;2022-07-01T00:33:23;15.00;99.90
32446;DHT22;18899;50.748;7.102;2022-07-01T00:35:48;15.00;99.90
32446;DHT22;18899;50.748;7.102;2022-07-01T00:38:15;15.00;99.90
32446;DHT22;18899;50.748;7.102;2022-07-01T00:40:40;15.20;99.90
32446;DHT22;18899;50.748;7.102;2022-07-01T00:43:06;15.20;99.90
32446;DHT22;18899;50.748;7.102;2022-07-01T00:45:31;15.20;99.90
32446;DHT22;18899;50.748;7.102;2022-07-01T00:47:57;15.40;99.90
32446;DHT22;18899;50.748;7.102;2022-07-01T00:50:23;15.30;99.90
32446;DHT22;18899;50.748;7.102;2022-07-01T00:52:48;15.10;99.90
32446;DHT22;18899;50.748;7.102;2022-07-01T00:55:15;15.10;99.90
32446;DHT22;18899;50.748;7.102;2022-07-01T00:57:42;15.00;99.90
32446;DHT22;18899;50.748;7.102;2022-07-01T01:00:10;14.90;99.90
32446;DHT22;18899;50.748;7.102;2022-07-01T01:02:37;14.80;99.90
32446;DHT22;18899;50.748;7.102;2022-07-01T01:05:07;14.80;99.90
32446;DHT22;18899;50.748;7.102;2022-07-01T01:07:33;14.90;99.90
32446;DHT22;18899;50.748;7.102;2022-07-01T01:10:00;15.00;99.90
32446;DHT22;18899;50.748;7.102;2022-07-01T01:12:27;15.10;99.90
32446;DHT22;18899;50.748;7.102;2022-07-01T01:14:52;15.10;99.90
32446;DHT22;18899;50.748;7.102;2022-07-01T01:17:19;15.00;99.90
32446;DHT22;18899;50.748;7.102;2022-07-01T01:19:45;15.10;99.90
32446;DHT22;18899;50.748;7.102;2022-07-01T01:22:13;15.10;99.90
32446;DHT22;18899;50.748;7.102;2022-07-01T01:24:41;15.20;99.90
32446;DHT22;18899;50.748;7.102;2022-07-01T01:27:07;15.10;99.90
32446;DHT22;18899;50.748;7.102;2022-07-01T01:29:35;15.00;99.90
32446;DHT22;18899;50.748;7.102;2022-07-01T01:32:01;14.90;99.90
32446;DHT22;18899;50.748;7.102;2022-07-01T01:34:26;14.90;99.90
32446;DHT22;18899;50.748;7.102;2022-07-01T01:36:52;14.90;99.90
32446;DHT22;18899;50.748;7.102;2022-07-01T01:39:19;14.90;99.90
32446;DHT22;18899;50.748;7.102;2022-07-01T01:41:45;14.90;99.90
32446;DHT22;18899;50.748;7.102;2022-07-01T01:44:11;14.80;99.90
32446;DHT22;18899;50.748;7.102;2022-07-01T01:46:36;14.70;99.90
32446;DHT22;18899;50.748;7.102;2022-07-01T01:49:03;14.70;99.90
32446;DHT22;18899;50.748;7.102;2022-07-01T01:51:29;14.70;99.90
32446;DHT22;18899;50.748;7.102;2022-07-01T01:53:55;14.80;99.90
32446;DHT22;18899;50.748;7.102;2022-07-01T01:56:21;14.80;99.90
32446;DHT22;18899;50.748;7.102;2022-07-01T01:58:47;14.80;99.90
32446;DHT22;18899;50.748;7.102;2022-07-01T02:01:13;14.90;99.90
32446;DHT22;18899;50.748;7.102;2022-07-01T02:03:40;14.80;99.90
32446;DHT22;18899;50.748;7.102;2022-07-01T02:06:08;14.80;99.90
32446;DHT22;18899;50.748;7.102;2022-07-01T02:08:38;14.80;99.90
32446;DHT22;18899;50.748;7.102;2022-07-01T02:11:04;14.80;99.90
32446;DHT22;18899;50.748;7.102;2022-07-01T02:13:30;14.80;99.90
32446;DHT22;18899;50.748;7.102;2022-07-01T02:15:56;14.80;99.90
32446;DHT22;18899;50.748;7.102;2022-07-01T02:18:22;14.80;99.90
32446;DHT22;18899;50.748;7.102;2022-07-01T02:20:48;14.70;99.90
32446;DHT22;18899;50.748;7.102;2022-07-01T02:23:14;14.70;99.90
32446;DHT22;18899;50.748;7.102;2022-07-01T02:25:41;14.60;99.90
32446;DHT22;18899;50.748;7.102;2022-07-01T02:28:06;14.60;99.90
32446;DHT22;18899;50.748;7.102;2022-07-01T02:30:33;14.80;99.90
32446;DHT22;18899;50.748;7.102;2022-07-01T02:33:10;14.70;99.90
32446;DHT22;18899;50.748;7.102;2022-07-01T02:35:37;14.70;99.90
32446;DHT22;18899;50.748;7.102;2022-07-01T02:38:03;14.70;99.90
32446;DHT22;18899;50.748;7.102;2022-07-01T02:40:29;14.70;99.90
32446;DHT22;18899;50.748;7.102;2022-07-01T02:42:55;14.60;99.90
32446;DHT22;18899;50.748;7.102;2022-07-01T02:45:20;14.70;99.90
32446;DHT22;18899;50.748;7.102;2022-07-01T02:47:46;14.70;99.90
32446;DHT22;18899;50.748;7.102;2022-07-01T02:50:13;14.70;99.90
32446;DHT22;18899;50.748;7.102;2022-07-01T02:52:41;14.70;99.90
32446;DHT22;18899;50.748;7.102;2022-07-01T02:55:09;14.60;99.90
32446;DHT22;18899;50.748;7.102;2022-07-01T02:57:35;14.60;99.90
32446;DHT22;18899;50.748;7.102;2022-07-01T03:00:02;14.60;99.90
32446;DHT22;18899;50.748;7.102;2022-07-01T03:02:31;14.50;99.90
32446;DHT22;18899;50.748;7.102;2022-07-01T03:04:56;14.50;99.90
32446;DHT22;18899;50.748;7.102;2022-07-01T03:07:22;14.50;99.90
32446;DHT22;18899;50.748;7.102;2022-07-01T03:09:47;14.50;99.90
32446;DHT22;18899;50.748;7.102;2022-07-01T03:12:13;14.50;99.90
32446;DHT22;18899;50.748;7.102;2022-07-01T03:17:19;14.50;99.90
32446;DHT22;18899;50.748;7.102;2022-07-01T03:19:45;14.40;99.90
32446;DHT22;18899;50.748;7.102;2022-07-01T03:22:11;14.50;99.90
32446;DHT22;18899;50.748;7.102;2022-07-01T03:24:36;14.50;99.90
32446;DHT22;18899;50.748;7.102;2022-07-01T03:27:02;14.50;99.90
32446;DHT22;18899;50.748;7.102;2022-07-01T03:29:28;14.50;99.90
32446;DHT22;18899;50.748;7.102;2022-07-01T03:31:54;14.50;99.90
32446;DHT22;18899;50.748;7.102;2022-07-01T03:34:19;14.50;99.90
32446;DHT22;18899;50.748;7.102;2022-07-01T03:36:45;14.60;99.90
32446;DHT22;18899;50.748;7.102;2022-07-01T03:39:10;14.60;99.90
32446;DHT22;18899;50.748;7.102;2022-07-01T03:41:36;14.60;99.90
32446;DHT22;18899;50.748;7.102;2022-07-01T03:44:02;14.60;99.90
32446;DHT22;18899;50.748;7.102;2022-07-01T03:46:27;14.60;99.90
32446;DHT22;18899;50.748;7.102;2022-07-01T03:48:56;14.60;99.90
32446;DHT22;18899;50.748;7.102;2022-07-01T03:51:22;14.60;99.90
32446;DHT22;18899;50.748;7.102;2022-07-01T03:53:47;14.60;99.90
32446;DHT22;18899;50.748;7.102;2022-07-01T03:56:32;14.60;99.90
32446;DHT22;18899;50.748;7.102;2022-07-01T03:58:57;14.70;99.90
32446;DHT22;18899;50.748;7.102;2022-07-01T04:01:23;14.70;99.90
32446;DHT22;18899;50.748;7.102;2022-07-01T04:03:48;14.70;99.90
32446;DHT22;18899;50.748;7.102;2022-07-01T04:06:14;14.70;99.90
32446;DHT22;18899;50.748;7.102;2022-07-01T04:08:40;14.70;99.90
32446;DHT22;18899;50.748;7.102;2022-07-01T04:11:06;14.70;99.90
32446;DHT22;18899;50.748;7.102;2022-07-01T04:13:37;14.80;99.90
32446;DHT22;18899;50.748;7.102;2022-07-01T04:16:03;14.70;99.90
32446;DHT22;18899;50.748;7.102;2022-07-01T04:18:29;14.70;99.90
32446;DHT22;18899;50.748;7.102;2022-07-01T04:20:55;14.70;99.90
32446;DHT22;18899;50.748;7.102;2022-07-01T04:23:39;14.70;99.90
32446;DHT22;18899;50.748;7.102;2022-07-01T04:26:05;14.70;99.90
32446;DHT22;18899;50.748;7.102;2022-07-01T04:28:30;14.70;99.90
32446;DHT22;18899;50.748;7.102;2022-07-01T04:30:56;14.80;99.90
32446;DHT22;18899;50.748;7.102;2022-07-01T04:33:21;14.90;99.90
32446;DHT22;18899;50.748;7.102;2022-07-01T04:35:47;14.90;99.90
32446;DHT22;18899;50.748;7.102;2022-07-01T04:38:12;15.10;99.90
32446;DHT22;18899;50.748;7.102;2022-07-01T04:40:38;15.00;99.90
32446;DHT22;18899;50.748;7.102;2022-07-01T04:43:03;15.00;99.90
32446;DHT22;18899;50.748;7.102;2022-07-01T04:45:29;15.00;99.90
32446;DHT22;18899;50.748;7.102;2022-07-01T04:47:54;15.00;99.90
32446;DHT22;18899;50.748;7.102;2022-07-01T04:50:20;15.10;99.90
32446;DHT22;18899;50.748;7.102;2022-07-01T04:52:46;15.10;99.90
32446;DHT22;18899;50.748;7.102;2022-07-01T04:55:11;15.00;99.90
32446;DHT22;18899;50.748;7.102;2022-07-01T04:57:37;14.90;99.90
32446;DHT22;18899;50.748;7.102;2022-07-01T05:00:03;15.00;99.90
32446;DHT22;18899;50.748;7.102;2022-07-01T05:02:28;15.00;99.90
32446;DHT22;18899;50.748;7.102;2022-07-01T05:04:54;15.10;99.90
32446;DHT22;18899;50.748;7.102;2022-07-01T05:07:19;15.10;99.90
32446;DHT22;18899;50.748;7.102;2022-07-01T05:09:55;15.00;99.90
32446;DHT22;18899;50.748;7.102;2022-07-01T05:12:21;15.00;99.90
32446;DHT22;18899;50.748;7.102;2022-07-01T05:14:48;15.00;99.90
32446;DHT22;18899;50.748;7.102;2022-07-01T05:17:13;15.10;99.90
32446;DHT22;18899;50.748;7.102;2022-07-01T05:19:39;15.20;99.90
32446;DHT22;18899;50.748;7.102;2022-07-01T05:22:23;15.20;99.90
32446;DHT22;18899;50.748;7.102;2022-07-01T05:24:48;15.30;99.90
32446;DHT22;18899;50.748;7.102;2022-07-01T05:27:14;15.40;99.90
32446;DHT22;18899;50.748;7.102;2022-07-01T05:29:39;15.60;99.90
32446;DHT22;18899;50.748;7.102;2022-07-01T05:32:05;15.70;99.90
32446;DHT22;18899;50.748;7.102;2022-07-01T05:34:31;15.80;99.90
32446;DHT22;18899;50.748;7.102;2022-07-01T05:36:56;15.70;99.90
32446;DHT22;18899;50.748;7.102;2022-07-01T05:39:22;15.70;99.90
32446;DHT22;18899;50.748;7.102;2022-07-01T05:41:48;15.80;99.90
32446;DHT22;18899;50.748;7.102;2022-07-01T05:44:13;15.80;99.90
32446;DHT22;18899;50.748;7.102;2022-07-01T05:46:39;15.80;99.90
32446;DHT22;18899;50.748;7.102;2022-07-01T05:49:04;15.90;99.90
32446;DHT22;18899;50.748;7.102;2022-07-01T05:51:30;15.90;99.90
32446;DHT22;18899;50.748;7.102;2022-07-01T05:53:56;15.90;99.90
32446;DHT22;18899;50.748;7.102;2022-07-01T05:56:22;15.90;99.90
32446;DHT22;18899;50.748;7.102;2022-07-01T05:58:48;16.00;99.90
32446;DHT22;18899;50.748;7.102;2022-07-01T06:01:13;16.20;99.90
32446;DHT22;18899;50.748;7.102;2022-07-01T06:03:39;16.40;99.90
32446;DHT22;18899;50.748;7.102;2022-07-01T06:06:05;16.50;99.90
32446;DHT22;18899;50.748;7.102;2022-07-01T06:08:30;16.60;99.90
32446;DHT22;18899;50.748;7.102;2022-07-01T06:10:56;16.70;99.90
32446;DHT22;18899;50.748;7.102;2022-07-01T06:13:22;16.90;99.90
32446;DHT22;18899;50.748;7.102;2022-07-01T06:15:47;16.90;99.90
32446;DHT22;18899;50.748;7.102;2022-07-01T06:18:13;17.10;99.90
32446;DHT22;18899;50.748;7.102;2022-07-01T06:20:38;17.10;99.90
32446;DHT22;18899;50.748;7.102;2022-07-01T06:23:04;17.00;99.90
32446;DHT22;18899;50.748;7.102;2022-07-01T06:25:30;17.20;99.90
32446;DHT22;18899;50.748;7.102;2022-07-01T06:27:55;17.40;99.90
32446;DHT22;18899;50.748;7.102;2022-07-01T06:30:21;17.80;99.90
32446;DHT22;18899;50.748;7.102;2022-07-01T06:32:46;18.20;99.90
32446;DHT22;18899;50.748;7.102;2022-07-01T06:35:12;18.60;99.90
32446;DHT22;18899;50.748;7.102;2022-07-01T06:37:37;18.50;99.90
32446;DHT22;18899;50.748;7.102;2022-07-01T06:40:04;18.60;99.90
32446;DHT22;18899;50.748;7.102;2022-07-01T06:42:30;18.60;99.90
32446;DHT22;18899;50.748;7.102;2022-07-01T06:44:56;18.90;99.90
32446;DHT22;18899;50.748;7.102;2022-07-01T06:47:22;19.30;99.90
32446;DHT22;18899;50.748;7.102;2022-07-01T06:49:47;19.70;99.90
32446;DHT22;18899;50.748;7.102;2022-07-01T06:52:14;20.10;99.90
32446;DHT22;18899;50.748;7.102;2022-07-01T06:54:39;20.60;99.90
32446;DHT22;18899;50.748;7.102;2022-07-01T06:57:05;21.20;99.90
32446;DHT22;18899;50.748;7.102;2022-07-01T06:59:31;21.00;99.90
32446;DHT22;18899;50.748;7.102;2022-07-01T07:01:57;21.00;99.90
32446;DHT22;18899;50.748;7.102;2022-07-01T07:04:23;21.10;99.90
32446;DHT22;18899;50.748;7.102;2022-07-01T07:06:48;21.20;99.90
32446;DHT22;18899;50.748;7.102;2022-07-01T07:09:14;21.40;99.90
32446;DHT22;18899;50.748;7.102;2022-07-01T07:11:39;21.20;99.90
32446;DHT22;18899;50.748;7.102;2022-07-01T07:14:05;20.90;99.90
32446;DHT22;18899;50.748;7.102;2022-07-01T07:16:30;20.50;99.90
32446;DHT22;18899;50.748;7.102;2022-07-01T07:18:56;20.30;99.90
32446;DHT22;18899;50.748;7.102;2022-07-01T07:21:21;20.20;99.90
32446;DHT22;18899;50.748;7.102;2022-07-01T07:23:47;20.20;99.90
32446;DHT22;18899;50.748;7.102;2022-07-01T07:26:12;19.90;99.90
32446;DHT22;18899;50.748;7.102;2022-07-01T07:28:39;19.80;99.90
32446;DHT22;18899;50.748;7.102;2022-07-01T07:31:04;19.60;99.90
32446;DHT22;18899;50.748;7.102;2022-07-01T07:33:30;19.50;99.90
32446;DHT22;18899;50.748;7.102;2022-07-01T07:35:55;19.80;99.90
32446;DHT22;18899;50.748;7.102;2022-07-01T07:38:22;20.10;99.90
32446;DHT22;18899;50.748;7.102;2022-07-01T07:40:47;20.10;99.90
32446;DHT22;18899;50.748;7.102;2022-07-01T07:43:13;20.20;99.90
32446;DHT22;18899;50.748;7.102;2022-07-01T07:45:39;20.80;99.90
32446;DHT22;18899;50.748;7.102;2022-07-01T07:48:05;20.90;99.90
32446;DHT22;18899;50.748;7.102;2022-07-01T07:50:32;21.40;99.90
32446;DHT22;18899;50.748;7.102;2022-07-01T07:52:57;21.50;99.90
32446;DHT22;18899;50.748;7.102;2022-07-01T07:55:23;21.40;99.90
32446;DHT22;18899;50.748;7.102;2022-07-01T07:57:48;20.90;99.90
32446;DHT22;18899;50.748;7.102;2022-07-01T08:00:14;21.10;99.90
32446;DHT22;18899;50.748;7.102;2022-07-01T08:02:41;21.80;99.90
32446;DHT22;18899;50.748;7.102;2022-07-01T08:05:08;22.20;99.90
32446;DHT22;18899;50.748;7.102;2022-07-01T08:07:41;22.40;99.90
32446;DHT22;18899;50.748;7.102;2022-07-01T08:10:11;22.10;99.90
32446;DHT22;18899;50.748;7.102;2022-07-01T08:12:37;22.00;99.90
32446;DHT22;18899;50.748;7.102;2022-07-01T08:15:03;22.10;99.90
32446;DHT22;18899;50.748;7.102;2022-07-01T08:17:30;21.80;99.90
32446;DHT22;18899;50.748;7.102;2022-07-01T08:19:55;21.50;99.90
32446;DHT22;18899;50.748;7.102;2022-07-01T08:22:21;21.50;99.90
32446;DHT22;18899;50.748;7.102;2022-07-01T08:24:47;21.40;99.90
32446;DHT22;18899;50.748;7.102;2022-07-01T08:27:13;21.20;99.90
32446;DHT22;18899;50.748;7.102;2022-07-01T08:29:39;20.80;99.90
32446;DHT22;18899;50.748;7.102;2022-07-01T08:32:06;20.60;99.90
32446;DHT22;18899;50.748;7.102;2022-07-01T08:34:32;20.70;99.90
32446;DHT22;18899;50.748;7.102;2022-07-01T08:36:57;21.00;99.90
32446;DHT22;18899;50.748;7.102;2022-07-01T08:39:23;21.00;99.90
32446;DHT22;18899;50.748;7.102;2022-07-01T08:41:49;21.10;99.90
32446;DHT22;18899;50.748;7.102;2022-07-01T08:44:14;21.20;99.90
32446;DHT22;18899;50.748;7.102;2022-07-01T08:46:40;21.30;99.90
32446;DHT22;18899;50.748;7.102;2022-07-01T08:49:06;21.20;99.90
32446;DHT22;18899;50.748;7.102;2022-07-01T08:51:32;21.10;99.90
32446;DHT22;18899;50.748;7.102;2022-07-01T08:53:57;21.40;99.90
32446;DHT22;18899;50.748;7.102;2022-07-01T08:56:23;21.60;99.90
32446;DHT22;18899;50.748;7.102;2022-07-01T08:59:11;22.20;99.90
32446;DHT22;18899;50.748;7.102;2022-07-01T09:01:37;22.60;99.90
32446;DHT22;18899;50.748;7.102;2022-07-01T09:04:19;23.30;99.10
32446;DHT22;18899;50.748;7.102;2022-07-01T09:06:46;23.60;98.50
32446;DHT22;18899;50.748;7.102;2022-07-01T09:09:17;23.50;98.20
32446;DHT22;18899;50.748;7.102;2022-07-01T09:11:53;23.80;94.50
32446;DHT22;18899;50.748;7.102;2022-07-01T09:14:24;23.30;96.60
32446;DHT22;18899;50.748;7.102;2022-07-01T09:16:52;23.10;98.50
32446;DHT22;18899;50.748;7.102;2022-07-01T09:19:19;23.50;97.20
32446;DHT22;18899;50.748;7.102;2022-07-01T09:24:36;24.00;93.60
32446;DHT22;18899;50.748;7.102;2022-07-01T09:27:04;24.50;91.70
32446;DHT22;18899;50.748;7.102;2022-07-01T09:29:35;24.60;91.40
32446;DHT22;18899;50.748;7.102;2022-07-01T09:32:04;24.70;90.40
32446;DHT22;18899;50.748;7.102;2022-07-01T09:34:41;24.50;90.00
32446;DHT22;18899;50.748;7.102;2022-07-01T09:37:07;24.30;86.50
32446;DHT22;18899;50.748;7.102;2022-07-01T09:39:42;24.50;88.10
32446;DHT22;18899;50.748;7.102;2022-07-01T09:42:07;24.90;90.00
32446;DHT22;18899;50.748;7.102;2022-07-01T09:44:33;25.50;81.50
32446;DHT22;18899;50.748;7.102;2022-07-01T09:46:59;25.10;82.80
32446;DHT22;18899;50.748;7.102;2022-07-01T09:49:27;25.50;84.60
32446;DHT22;18899;50.748;7.102;2022-07-01T09:51:52;27.20;79.30
32446;DHT22;18899;50.748;7.102;2022-07-01T09:54:18;28.10;72.40
32446;DHT22;18899;50.748;7.102;2022-07-01T09:56:44;29.30;66.70
32446;DHT22;18899;50.748;7.102;2022-07-01T09:59:10;28.90;68.70
32446;DHT22;18899;50.748;7.102;2022-07-01T10:01:38;29.10;70.20
32446;DHT22;18899;50.748;7.102;2022-07-01T10:04:07;29.50;71.40
32446;DHT22;18899;50.748;7.102;2022-07-01T10:12:05;31.40;58.80
32446;DHT22;18899;50.748;7.102;2022-07-01T10:14:37;32.50;55.50
32446;DHT22;18899;50.748;7.102;2022-07-01T10:17:04;31.00;60.00
32446;DHT22;18899;50.748;7.102;2022-07-01T10:19:31;30.40;59.40
32446;DHT22;18899;50.748;7.102;2022-07-01T10:22:25;31.10;54.10
32446;DHT22;18899;50.748;7.102;2022-07-01T10:24:51;32.60;53.20
32446;DHT22;18899;50.748;7.102;2022-07-01T10:27:21;32.90;50.80
32446;DHT22;18899;50.748;7.102;2022-07-01T10:29:47;32.40;52.80
32446;DHT22;18899;50.748;7.102;2022-07-01T10:34:48;31.20;52.70
32446;DHT22;18899;50.748;7.102;2022-07-01T10:37:16;30.90;54.50
32446;DHT22;18899;50.748;7.102;2022-07-01T10:39:56;30.90;55.90
32446;DHT22;18899;50.748;7.102;2022-07-01T10:42:33;31.40;54.30
32446;DHT22;18899;50.748;7.102;2022-07-01T10:45:10;31.30;55.70
32446;DHT22;18899;50.748;7.102;2022-07-01T10:47:39;31.50;54.80
32446;DHT22;18899;50.748;7.102;2022-07-01T10:50:13;32.80;52.20
32446;DHT22;18899;50.748;7.102;2022-07-01T10:52:59;32.30;55.00
32446;DHT22;18899;50.748;7.102;2022-07-01T10:55:36;31.20;53.70
32446;DHT22;18899;50.748;7.102;2022-07-01T10:58:02;28.70;57.90
32446;DHT22;18899;50.748;7.102;2022-07-01T11:00:29;27.90;60.30
32446;DHT22;18899;50.748;7.102;2022-07-01T11:03:09;28.10;57.30
32446;DHT22;18899;50.748;7.102;2022-07-01T11:05:36;26.50;60.50
32446;DHT22;18899;50.748;7.102;2022-07-01T11:08:05;26.10;62.90
32446;DHT22;18899;50.748;7.102;2022-07-01T11:10:31;26.40;63.10
32446;DHT22;18899;50.748;7.102;2022-07-01T11:12:56;26.00;63.30
32446;DHT22;18899;50.748;7.102;2022-07-01T11:15:22;25.20;67.30
32446;DHT22;18899;50.748;7.102;2022-07-01T11:17:50;24.80;67.00
32446;DHT22;18899;50.748;7.102;2022-07-01T11:20:16;24.60;66.10
32446;DHT22;18899;50.748;7.102;2022-07-01T11:22:41;24.40;71.10
32446;DHT22;18899;50.748;7.102;2022-07-01T11:25:09;24.80;70.50
32446;DHT22;18899;50.748;7.102;2022-07-01T11:27:38;24.60;67.10
32446;DHT22;18899;50.748;7.102;2022-07-01T11:30:07;23.30;71.40
32446;DHT22;18899;50.748;7.102;2022-07-01T11:32:36;23.00;73.60
32446;DHT22;18899;50.748;7.102;2022-07-01T11:35:03;23.30;73.90
32446;DHT22;18899;50.748;7.102;2022-07-01T11:37:49;23.20;74.50
32446;DHT22;18899;50.748;7.102;2022-07-01T11:40:34;23.20;72.50
32446;DHT22;18899;50.748;7.102;2022-07-01T11:42:59;22.70;74.70
32446;DHT22;18899;50.748;7.102;2022-07-01T11:45:26;22.70;73.50
32446;DHT22;18899;50.748;7.102;2022-07-01T11:47:52;22.40;75.50
32446;DHT22;18899;50.748;7.102;2022-07-01T11:50:18;22.20;77.50
32446;DHT22;18899;50.748;7.102;2022-07-01T11:52:45;22.00;80.30
32446;DHT22;18899;50.748;7.102;2022-07-01T11:55:11;21.80;78.80
32446;DHT22;18899;50.748;7.102;2022-07-01T11:57:37;21.50;80.80
32446;DHT22;18899;50.748;7.102;2022-07-01T12:00:11;21.40;82.60
32446;DHT22;18899;50.748;7.102;2022-07-01T12:02:37;21.70;82.70
32446;DHT22;18899;50.748;7.102;2022-07-01T12:05:03;21.80;83.90
32446;DHT22;18899;50.748;7.102;2022-07-01T12:07:30;22.20;81.40
32446;DHT22;18899;50.748;7.102;2022-07-01T12:09:57;22.70;78.40
32446;DHT22;18899;50.748;7.102;2022-07-01T12:12:24;22.80;78.20
32446;DHT22;18899;50.748;7.102;2022-07-01T12:14:58;23.20;76.70
32446;DHT22;18899;50.748;7.102;2022-07-01T12:17:26;23.40;85.10
32446;DHT22;18899;50.748;7.102;2022-07-01T12:19:54;23.00;85.00
32446;DHT22;18899;50.748;7.102;2022-07-01T12:22:22;23.30;83.40
32446;DHT22;18899;50.748;7.102;2022-07-01T12:24:52;22.70;84.80
32446;DHT22;18899;50.748;7.102;2022-07-01T12:27:22;22.70;82.50
32446;DHT22;18899;50.748;7.102;2022-07-01T12:32:24;22.40;82.80
32446;DHT22;18899;50.748;7.102;2022-07-01T12:34:55;22.90;81.40
32446;DHT22;18899;50.748;7.102;2022-07-01T12:37:41;23.20;77.20
32446;DHT22;18899;50.748;7.102;2022-07-01T12:40:19;23.20;81.50
32446;DHT22;18899;50.748;7.102;2022-07-01T12:42:44;23.40;78.70
32446;DHT22;18899;50.748;7.102;2022-07-01T12:45:15;23.30;78.40
32446;DHT22;18899;50.748;7.102;2022-07-01T12:47:45;23.00;80.90
32446;DHT22;18899;50.748;7.102;2022-07-01T12:50:30;23.00;79.30
32446;DHT22;18899;50.748;7.102;2022-07-01T12:52:57;23.30;75.50
32446;DHT22;18899;50.748;7.102;2022-07-01T12:55:23;23.50;76.40
32446;DHT22;18899;50.748;7.102;2022-07-01T12:57:51;23.30;79.00
32446;DHT22;18899;50.748;7.102;2022-07-01T13:00:18;22.80;79.20
32446;DHT22;18899;50.748;7.102;2022-07-01T13:02:44;22.80;77.10
32446;DHT22;18899;50.748;7.102;2022-07-01T13:05:10;22.60;78.80
32446;DHT22;18899;50.748;7.102;2022-07-01T13:07:36;22.30;79.60
32446;DHT22;18899;50.748;7.102;2022-07-01T13:10:02;21.70;79.50
32446;DHT22;18899;50.748;7.102;2022-07-01T13:12:29;21.70;78.10
32446;DHT22;18899;50.748;7.102;2022-07-01T13:14:55;21.90;75.50
32446;DHT22;18899;50.748;7.102;2022-07-01T13:17:23;22.00;76.50
32446;DHT22;18899;50.748;7.102;2022-07-01T13:19:49;21.90;77.80
32446;DHT22;18899;50.748;7.102;2022-07-01T13:22:15;21.90;78.50
32446;DHT22;18899;50.748;7.102;2022-07-01T13:24:40;21.60;78.50
32446;DHT22;18899;50.748;7.102;2022-07-01T13:27:06;21.70;79.20
32446;DHT22;18899;50.748;7.102;2022-07-01T13:29:32;21.50;81.80
32446;DHT22;18899;50.748;7.102;2022-07-01T13:31:57;21.40;83.40
32446;DHT22;18899;50.748;7.102;2022-07-01T13:34:23;21.50;83.20
32446;DHT22;18899;50.748;7.102;2022-07-01T13:36:49;21.90;86.00
32446;DHT22;18899;50.748;7.102;2022-07-01T13:39:15;22.20;82.10
32446;DHT22;18899;50.748;7.102;2022-07-01T13:41:41;22.60;79.40
32446;DHT22;18899;50.748;7.102;2022-07-01T13:44:06;22.80;76.90
32446;DHT22;18899;50.748;7.102;2022-07-01T13:46:32;22.80;74.30
32446;DHT22;18899;50.748;7.102;2022-07-01T13:48:57;22.40;78.20
32446;DHT22;18899;50.748;7.102;2022-07-01T13:51:23;21.80;77.10
32446;DHT22;18899;50.748;7.102;2022-07-01T13:53:48;21.70;79.70
32446;DHT22;18899;50.748;7.102;2022-07-01T13:56:14;21.80;82.40
32446;DHT22;18899;50.748;7.102;2022-07-01T13:58:39;21.80;80.20
32446;DHT22;18899;50.748;7.102;2022-07-01T14:01:05;21.80;79.80
32446;DHT22;18899;50.748;7.102;2022-07-01T14:03:31;21.90;78.90
32446;DHT22;18899;50.748;7.102;2022-07-01T14:05:56;22.20;78.90
32446;DHT22;18899;50.748;7.102;2022-07-01T14:08:22;22.30;79.90
32446;DHT22;18899;50.748;7.102;2022-07-01T14:10:47;22.40;78.10
32446;DHT22;18899;50.748;7.102;2022-07-01T14:13:13;22.50;80.20
32446;DHT22;18899;50.748;7.102;2022-07-01T14:15:38;22.40;80.80
32446;DHT22;18899;50.748;7.102;2022-07-01T14:18:04;22.40;76.00
32446;DHT22;18899;50.748;7.102;2022-07-01T14:20:30;22.20;80.10
32446;DHT22;18899;50.748;7.102;2022-07-01T14:22:55;22.10;79.60
32446;DHT22;18899;50.748;7.102;2022-07-01T14:25:21;21.90;81.90
32446;DHT22;18899;50.748;7.102;2022-07-01T14:27:47;22.00;79.50
32446;DHT22;18899;50.748;7.102;2022-07-01T14:30:15;22.10;78.90
32446;DHT22;18899;50.748;7.102;2022-07-01T14:32:41;22.00;78.30
32446;DHT22;18899;50.748;7.102;2022-07-01T14:35:07;21.70;79.20
32446;DHT22;18899;50.748;7.102;2022-07-01T14:37:33;21.50;79.80
32446;DHT22;18899;50.748;7.102;2022-07-01T14:39:59;21.60;80.20
32446;DHT22;18899;50.748;7.102;2022-07-01T14:42:25;21.70;79.10
32446;DHT22;18899;50.748;7.102;2022-07-01T14:44:52;21.70;79.80
32446;DHT22;18899;50.748;7.102;2022-07-01T14:47:18;21.80;81.90
32446;DHT22;18899;50.748;7.102;2022-07-01T14:49:43;21.80;82.80
32446;DHT22;18899;50.748;7.102;2022-07-01T14:52:10;21.90;80.20
32446;DHT22;18899;50.748;7.102;2022-07-01T14:54:40;21.90;77.80
32446;DHT22;18899;50.748;7.102;2022-07-01T14:57:05;22.10;79.10
32446;DHT22;18899;50.748;7.102;2022-07-01T14:59:31;22.10;79.90
32446;DHT22;18899;50.748;7.102;2022-07-01T15:01:57;22.20;77.40
32446;DHT22;18899;50.748;7.102;2022-07-01T15:04:27;22.40;77.70
32446;DHT22;18899;50.748;7.102;2022-07-01T15:06:53;22.40;78.10
32446;DHT22;18899;50.748;7.102;2022-07-01T15:09:18;22.10;76.80
32446;DHT22;18899;50.748;7.102;2022-07-01T15:11:51;21.70;78.70
32446;DHT22;18899;50.748;7.102;2022-07-01T15:14:16;21.50;79.60
32446;DHT22;18899;50.748;7.102;2022-07-01T15:16:42;21.70;80.30
32446;DHT22;18899;50.748;7.102;2022-07-01T15:19:08;21.60;80.40
32446;DHT22;18899;50.748;7.102;2022-07-01T15:21:34;21.60;78.90
32446;DHT22;18899;50.748;7.102;2022-07-01T15:24:00;21.80;80.40
32446;DHT22;18899;50.748;7.102;2022-07-01T15:26:25;22.00;78.10
32446;DHT22;18899;50.748;7.102;2022-07-01T15:28:51;22.50;75.90
32446;DHT22;18899;50.748;7.102;2022-07-01T15:31:17;22.90;74.00
32446;DHT22;18899;50.748;7.102;2022-07-01T15:33:43;23.20;72.50
32446;DHT22;18899;50.748;7.102;2022-07-01T15:36:09;23.20;69.60
32446;DHT22;18899;50.748;7.102;2022-07-01T15:38:36;23.30;69.70
32446;DHT22;18899;50.748;7.102;2022-07-01T15:41:02;23.30;69.80
32446;DHT22;18899;50.748;7.102;2022-07-01T15:43:28;23.30;71.90
32446;DHT22;18899;50.748;7.102;2022-07-01T15:45:55;23.20;70.80